Time;durP1;ratioP1;P1;durP2;ratioP2;P2;SDS_P1;SDS_P2;PMS_P1;PMS_P2;Temp;Humidity;BMP_temperature;BMP_pressure;BME280_temperature;BME280_humidity;BME280_pressure;Samples;Min_cycle;Max_cycle;Signal;HPM_P1;HPM_P2
2023/09/01 00:01:31;;;;;;;84.28;80.32;;;;;;;21.81;47.67;101030.38;5036682;28;20061;-72
2023/09/01 00:03:56;;;;;;;85.60;81.70;;;;;;;21.81;47.56;101032.31;5051949;28;20033;-72
2023/09/01 00:06:22;;;;;;;83.35;79.45;;;;;;;21.80;47.63;101033.44;5046722;28;20033;-73
2023/09/01 00:08:48;;;;;;;84.75;80.95;;;;;;;21.79;47.71;101043.59;5050405;28;20116;-72
2023/09/01 00:11:13;;;;;;;86.57;82.43;;;;;;;21.79;47.51;101042.81;5031995;28;20029;-72
2023/09/01 00:13:39;;;;;;;84.45;80.45;;;;;;;21.77;47.64;101045.03;5039544;28;20459;-71
2023/09/01 00:16:05;;;;;;;84.13;80.22;;;;;;;21.77;47.93;101039.53;5033705;28;20054;-72
2023/09/01 00:18:30;;;;;;;84.95;80.75;;;;;;;21.76;47.58;101035.19;5045699;28;20037;-73
2023/09/01 00:21:04;;;;;;;83.10;79.30;;;;;;;21.75;47.94;101037.13;5041679;28;20070;-71
2023/09/01 00:23:31;;;;;;;81.88;78.05;;;;;;;21.74;47.95;101040.97;5039306;28;20028;-72
2023/09/01 00:25:58;;;;;;;82.45;78.40;;;;;;;21.73;48.03;101033.06;5040617;28;20037;-72
2023/09/01 00:28:24;;;;;;;82.88;78.78;;;;;;;21.72;47.97;101025.91;5041691;28;20028;-72
2023/09/01 00:30:51;;;;;;;81.63;77.95;;;;;;;21.71;48.07;101025.13;5051562;28;20027;-72
2023/09/01 00:33:16;;;;;;;82.35;78.45;;;;;;;21.71;47.52;101027.06;5044493;28;20548;-72
2023/09/01 00:35:42;;;;;;;83.38;79.60;;;;;;;21.69;47.75;101023.81;5046086;28;20043;-71
2023/09/01 00:38:07;;;;;;;82.68;78.93;;;;;;;21.68;48.00;101025.75;5045812;28;20052;-72
2023/09/01 00:40:32;;;;;;;81.90;78.10;;;;;;;21.68;47.98;101022.19;5050505;28;20033;-72
2023/09/01 00:42:58;;;;;;;83.10;79.38;;;;;;;21.68;47.56;101024.94;5043468;28;20076;-71
2023/09/01 00:45:23;;;;;;;83.13;79.30;;;;;;;21.66;47.64;101033.47;5037097;28;20079;-72
2023/09/01 00:47:50;;;;;;;82.40;78.70;;;;;;;21.65;48.06;101029.13;5039881;28;20044;-72
2023/09/01 00:50:15;;;;;;;80.93;77.30;;;;;;;21.65;47.88;101022.81;5051218;28;20029;-73
2023/09/01 00:52:41;;;;;;;81.82;78.13;;;;;;;21.63;47.38;101017.63;5044889;28;20366;-72
2023/09/01 00:55:07;;;;;;;81.72;77.95;;;;;;;21.62;47.81;101016.00;5046902;28;20021;-75
2023/09/01 00:57:32;;;;;;;81.82;78.05;;;;;;;21.61;47.78;101028.91;5031835;28;20033;-71
2023/09/01 00:59:58;;;;;;;83.45;79.65;;;;;;;21.61;47.91;101028.09;5038619;28;20020;-70
2023/09/01 01:02:24;;;;;;;83.75;79.80;;;;;;;21.59;47.99;101033.91;5033439;28;20112;-71
2023/09/01 01:04:50;;;;;;;81.65;77.85;;;;;;;21.58;47.59;101029.53;5046366;28;20063;-71
2023/09/01 01:07:43;;;;;;;82.55;78.75;;;;;;;21.58;47.53;101026.78;5042926;28;20052;-73
2023/09/01 01:10:23;;;;;;;81.55;77.88;;;;;;;21.56;47.69;101034.53;5035456;28;20523;-73
2023/09/01 01:12:59;;;;;;;79.50;75.72;;;;;;;21.54;47.83;101028.50;5047634;28;20021;-72
2023/09/01 01:15:26;;;;;;;80.65;76.82;;;;;;;21.54;47.84;101030.47;5040810;28;20113;-72
2023/09/01 01:17:56;;;;;;;81.25;77.47;;;;;;;21.53;47.70;101029.66;5041978;28;20064;-71
2023/09/01 01:20:26;;;;;;;81.05;77.25;;;;;;;21.52;47.45;101033.53;5055088;28;20075;-69
2023/09/01 01:23:06;;;;;;;83.18;79.18;;;;;;;21.52;47.40;101029.94;5047147;28;20029;-71
2023/09/01 01:25:32;;;;;;;82.43;78.30;;;;;;;21.49;47.63;101022.31;5039199;28;20101;-72
2023/09/01 01:27:57;;;;;;;81.93;78.13;;;;;;;21.50;47.85;101027.53;5039410;28;20107;-72
2023/09/01 01:30:23;;;;;;;83.30;79.30;;;;;;;21.48;47.57;101024.28;5048248;28;20037;-71
2023/09/01 01:32:49;;;;;;;79.55;75.95;;;;;;;21.47;47.43;101028.16;5042662;28;20373;-73
2023/09/01 01:35:47;;;;;;;83.00;79.10;;;;;;;21.46;47.96;101031.19;5037553;28;20098;-71
2023/09/01 01:38:25;;;;;;;79.25;75.63;;;;;;;21.44;47.45;101039.75;5022512;28;20044;-72
2023/09/01 01:40:58;;;;;;;80.30;76.60;;;;;;;21.42;47.85;101033.75;5063637;28;20049;-72
2023/09/01 01:43:27;;;;;;;83.00;79.25;;;;;;;21.42;48.04;101028.25;5043649;28;20045;-73
2023/09/01 01:45:54;;;;;;;81.55;77.82;;;;;;;21.41;47.76;101031.31;5033061;28;20033;-71
2023/09/01 01:48:19;;;;;;;83.07;79.28;;;;;;;21.41;47.60;101032.13;5047795;28;20103;-71
2023/09/01 01:50:45;;;;;;;80.63;76.93;;;;;;;21.40;47.54;101036.00;5048583;28;20037;-72
2023/09/01 01:53:13;;;;;;;80.40;76.72;;;;;;;21.39;47.89;101037.09;5045423;28;20041;-73
2023/09/01 01:55:38;;;;;;;80.47;76.88;;;;;;;21.38;47.57;101035.47;5036447;28;20032;-75
2023/09/01 01:58:05;;;;;;;81.30;77.53;;;;;;;21.37;47.97;101039.34;5050035;28;20029;-73
2023/09/01 02:00:31;;;;;;;82.78;78.88;;;;;;;21.36;47.79;101033.00;5049873;28;20533;-72
2023/09/01 02:02:56;;;;;;;80.20;76.40;;;;;;;21.36;47.82;101021.22;5054735;28;20033;-73
2023/09/01 02:05:22;;;;;;;80.78;76.95;;;;;;;21.35;48.01;101014.09;5043211;28;20044;-72
2023/09/01 02:07:47;;;;;;;79.65;75.95;;;;;;;21.34;47.79;101010.53;5045014;28;20476;-71
2023/09/01 02:10:12;;;;;;;79.40;75.32;;;;;;;21.33;47.90;101016.34;5054757;28;20350;-71
2023/09/01 02:12:38;;;;;;;82.88;79.03;;;;;;;21.33;48.01;101016.34;5043736;28;20060;-73
2023/09/01 02:15:08;;;;;;;79.47;75.88;;;;;;;21.32;47.59;101025.72;5042503;28;20366;-72
2023/09/01 02:17:36;;;;;;;80.75;77.00;;;;;;;21.30;47.92;101017.78;5040288;28;20465;-72
2023/09/01 02:20:01;;;;;;;80.95;77.25;;;;;;;21.30;47.82;101017.78;5050133;28;20079;-71
2023/09/01 02:22:27;;;;;;;80.95;76.93;;;;;;;21.30;48.01;101006.78;5050634;28;20037;-73
2023/09/01 02:24:52;;;;;;;79.82;76.18;;;;;;;21.29;47.50;100998.84;5050675;28;20317;-73
2023/09/01 02:27:17;;;;;;;79.15;75.45;;;;;;;21.29;47.76;100993.34;5049175;28;20041;-73
2023/09/01 02:29:43;;;;;;;79.88;75.97;;;;;;;21.28;47.66;100999.97;5047072;28;20493;-72
2023/09/01 02:32:08;;;;;;;80.00;76.30;;;;;;;21.28;47.77;100997.22;5050934;28;20420;-71
2023/09/01 02:34:34;;;;;;;77.57;73.97;;;;;;;21.26;47.41;100993.97;5041090;28;20515;-72
2023/09/01 02:36:59;;;;;;;80.07;76.47;;;;;;;21.25;47.43;100995.09;5048449;28;20024;-72
2023/09/01 02:39:25;;;;;;;80.82;76.82;;;;;;;21.25;47.88;100992.34;5056462;28;20067;-72
2023/09/01 02:41:50;;;;;;;79.57;75.88;;;;;;;21.24;47.94;100997.00;5044752;28;20029;-71
2023/09/01 02:44:15;;;;;;;78.25;74.55;;;;;;;21.23;47.99;101003.63;5036440;28;20392;-71
2023/09/01 02:46:41;;;;;;;80.00;76.30;;;;;;;21.22;47.71;101010.25;5037891;28;20030;-72
2023/09/01 02:49:06;;;;;;;77.90;74.40;;;;;;;21.22;47.56;101009.41;5056876;28;20040;-72
2023/09/01 02:51:32;;;;;;;81.35;77.38;;;;;;;21.21;47.82;101013.31;5046677;28;20055;-71
2023/09/01 02:53:58;;;;;;;80.82;76.88;;;;;;;21.20;47.69;101008.94;5033785;28;20036;-72
2023/09/01 02:56:23;;;;;;;81.40;77.65;;;;;;;21.20;47.91;101019.94;5043621;28;20037;-72
2023/09/01 02:58:49;;;;;;;81.03;77.22;;;;;;;21.18;47.97;101021.03;5035656;28;20094;-72
2023/09/01 03:01:14;;;;;;;78.50;74.90;;;;;;;21.18;47.73;101025.72;5057044;28;20145;-74
2023/09/01 03:03:41;;;;;;;85.40;81.40;;;;;;;21.17;47.45;101008.44;5033489;28;20030;-73
2023/09/01 03:06:10;;;;;;;80.50;76.70;;;;;;;21.16;47.48;101005.97;5045692;28;20040;-73
2023/09/01 03:08:36;;;;;;;82.53;78.57;;;;;;;21.14;47.54;101003.56;5032089;28;20472;-72
2023/09/01 03:11:03;;;;;;;80.38;76.78;;;;;;;21.14;47.47;100999.97;5036199;28;20033;-72
2023/09/01 03:13:28;;;;;;;81.90;78.10;;;;;;;21.14;47.86;100997.22;5033590;28;20040;-71
2023/09/01 03:15:54;;;;;;;79.38;75.68;;;;;;;21.13;47.58;101001.09;5039590;28;20025;-72
2023/09/01 03:18:20;;;;;;;76.18;72.75;;;;;;;21.12;48.01;100999.50;5042974;28;20442;-72
2023/09/01 03:20:46;;;;;;;79.95;76.15;;;;;;;21.11;47.58;101006.09;5041309;28;20422;-73
2023/09/01 03:23:11;;;;;;;79.78;75.68;;;;;;;21.10;47.77;101008.03;5042000;28;20034;-72
2023/09/01 03:25:36;;;;;;;80.15;76.55;;;;;;;21.09;47.55;100994.59;5045723;28;20025;-72
2023/09/01 03:28:02;;;;;;;79.25;75.65;;;;;;;21.08;47.89;100988.28;5041661;28;20045;-71
2023/09/01 03:30:28;;;;;;;78.82;75.18;;;;;;;21.08;47.97;100984.75;5036283;28;20037;-71
2023/09/01 03:32:53;;;;;;;78.28;74.75;;;;;;;21.07;47.62;100988.63;5050363;28;20090;-72
2023/09/01 03:35:19;;;;;;;78.13;74.63;;;;;;;21.07;48.06;100983.13;5041924;28;20365;-72
2023/09/01 03:37:44;;;;;;;79.75;76.05;;;;;;;21.06;47.85;100979.53;5049198;28;20036;-71
2023/09/01 03:40:10;;;;;;;79.25;75.63;;;;;;;21.04;47.99;100973.56;5049052;28;20048;-73
2023/09/01 03:42:36;;;;;;;82.40;78.40;;;;;;;21.04;48.18;100975.47;5059121;28;20250;-70
2023/09/01 03:45:02;;;;;;;78.35;74.68;;;;;;;21.04;47.48;100980.97;5039878;28;20407;-73
2023/09/01 03:47:28;;;;;;;77.07;73.47;;;;;;;21.04;47.52;100991.97;5023737;28;20034;-73
2023/09/01 03:49:53;;;;;;;80.07;76.30;;;;;;;21.02;47.50;100981.28;5040841;28;20033;-72
2023/09/01 03:52:19;;;;;;;77.65;74.13;;;;;;;21.03;47.97;100976.59;5036940;28;20043;-73
2023/09/01 03:54:44;;;;;;;79.22;75.43;;;;;;;21.02;47.69;100973.06;5034956;28;20040;-72
2023/09/01 03:57:09;;;;;;;76.78;73.18;;;;;;;21.02;47.46;100967.56;5037714;28;20140;-73
2023/09/01 03:59:35;;;;;;;78.68;74.97;;;;;;;21.01;47.50;100970.59;5048450;28;20449;-72
2023/09/01 04:02:00;;;;;;;77.50;73.60;;;;;;;21.00;48.07;100977.22;5037157;28;20055;-72
2023/09/01 04:04:27;;;;;;;78.35;74.80;;;;;;;20.99;48.00;100978.34;5049218;28;20029;-73
2023/09/01 04:06:53;;;;;;;76.28;72.78;;;;;;;20.98;47.56;100977.53;5037272;28;20087;-72
2023/09/01 04:09:19;;;;;;;75.10;71.63;;;;;;;20.98;47.70;100977.53;5037581;28;20483;-73
2023/09/01 04:11:44;;;;;;;77.90;74.30;;;;;;;20.97;47.50;100973.16;5043658;28;20037;-72
2023/09/01 04:14:11;;;;;;;76.60;73.00;;;;;;;20.95;47.51;100970.72;5051128;28;20356;-72
2023/09/01 04:16:37;;;;;;;78.85;75.15;;;;;;;20.96;47.95;100977.00;5032330;28;20029;-72
2023/09/01 04:19:03;;;;;;;77.00;73.30;;;;;;;20.95;48.06;100970.72;5047749;28;20060;-72
2023/09/01 04:21:29;;;;;;;78.10;74.40;;;;;;;20.95;47.63;100965.22;5035505;28;20025;-74
2023/09/01 04:23:54;;;;;;;77.30;73.80;;;;;;;20.94;47.45;100960.03;5047936;28;20051;-72
2023/09/01 04:26:20;;;;;;;76.97;73.47;;;;;;;20.93;47.81;100956.47;5031054;28;20036;-73
2023/09/01 04:28:45;;;;;;;78.05;74.45;;;;;;;20.92;47.95;100954.84;5032024;28;20079;-72
2023/09/01 04:31:32;;;;;;;77.57;73.88;;;;;;;20.90;47.67;100965.34;5043745;28;20102;-72
2023/09/01 04:33:58;;;;;;;75.00;71.40;;;;;;;20.91;47.60;100961.44;5039176;28;20025;-73
2023/09/01 04:36:23;;;;;;;77.57;73.97;;;;;;;20.90;47.70;100959.03;5048230;28;20445;-73
2023/09/01 04:38:49;;;;;;;77.53;73.65;;;;;;;20.90;48.12;100961.78;5039414;28;20484;-72
2023/09/01 04:41:15;;;;;;;78.05;74.55;;;;;;;20.89;47.92;100960.97;5041979;28;20033;-72
2023/09/01 04:43:42;;;;;;;79.15;75.45;;;;;;;20.89;48.07;100963.72;5045363;28;20050;-71
2023/09/01 04:46:07;;;;;;;77.45;73.65;;;;;;;20.89;47.60;100965.63;5043861;28;20029;-71
2023/09/01 04:48:34;;;;;;;76.60;72.75;;;;;;;20.88;47.62;100981.28;5031635;28;20442;-70
2023/09/01 04:51:02;;;;;;;76.40;72.72;;;;;;;20.88;48.09;100969.50;5052753;28;20534;-71
2023/09/01 04:53:27;;;;;;;75.28;71.60;;;;;;;20.87;47.69;100971.44;5041645;28;20047;-71
2023/09/01 04:55:53;;;;;;;76.20;72.63;;;;;;;20.86;47.69;100969.78;5041604;28;20030;-72
2023/09/01 04:58:18;;;;;;;76.63;73.03;;;;;;;20.86;48.15;100969.78;5037373;28;20105;-72
2023/09/01 05:00:44;;;;;;;79.15;75.25;;;;;;;20.85;47.59;100972.88;5027921;28;20372;-72
2023/09/01 05:03:10;;;;;;;77.03;73.35;;;;;;;20.85;47.58;100968.19;5046138;28;20079;-72
2023/09/01 05:05:35;;;;;;;76.35;72.68;;;;;;;20.86;47.74;100977.22;5050762;28;20063;-71
2023/09/01 05:08:00;;;;;;;74.43;70.93;;;;;;;20.84;47.89;100971.22;5038815;28;20033;-72
2023/09/01 05:10:27;;;;;;;75.18;71.55;;;;;;;20.83;47.99;100966.88;5047949;28;20113;-71
2023/09/01 05:12:52;;;;;;;75.20;71.60;;;;;;;20.82;47.78;100966.06;5047390;28;20027;-72
2023/09/01 05:15:18;;;;;;;74.30;70.70;;;;;;;20.83;47.70;100969.63;5035837;28;20373;-73
2023/09/01 05:17:44;;;;;;;75.25;71.75;;;;;;;20.81;48.07;100972.66;5050443;28;20033;-73
2023/09/01 05:20:10;;;;;;;72.82;69.45;;;;;;;20.81;47.72;100977.34;5040867;28;20036;-72
2023/09/01 05:22:35;;;;;;;72.97;69.57;;;;;;;20.80;47.56;100983.97;5049788;28;20055;-73
2023/09/01 05:25:01;;;;;;;74.40;71.00;;;;;;;20.80;48.08;100979.28;5053311;28;20037;-73
2023/09/01 05:27:26;;;;;;;73.60;70.25;;;;;;;20.79;47.80;100985.91;5040003;28;20136;-72
2023/09/01 05:29:52;;;;;;;75.38;71.88;;;;;;;20.79;47.96;100985.06;5038634;28;20107;-72
2023/09/01 05:32:19;;;;;;;73.40;69.95;;;;;;;20.79;47.55;100988.63;5042948;28;20029;-73
2023/09/01 05:34:45;;;;;;;76.80;72.68;;;;;;;20.78;48.09;100976.00;5044544;28;20029;-71
2023/09/01 05:37:13;;;;;;;74.65;71.15;;;;;;;20.78;47.90;100980.69;5051945;28;20120;-73
2023/09/01 05:39:42;;;;;;;70.95;67.68;;;;;;;20.78;47.94;100994.44;5034990;28;20095;-71
2023/09/01 05:42:08;;;;;;;73.63;70.22;;;;;;;20.77;48.07;100982.63;5038332;28;20030;-72
2023/09/01 05:44:35;;;;;;;75.80;72.40;;;;;;;20.77;47.65;100987.31;5048525;28;20048;-73
2023/09/01 05:47:02;;;;;;;74.03;70.63;;;;;;;20.76;47.67;100981.00;5039031;28;20017;-71
2023/09/01 05:49:28;;;;;;;77.28;73.60;;;;;;;20.75;47.69;100973.88;5049895;28;20087;-73
2023/09/01 05:51:53;;;;;;;79.10;75.30;;;;;;;20.75;48.10;100977.44;5034873;28;20033;-71
2023/09/01 05:54:18;;;;;;;76.57;72.97;;;;;;;20.74;48.13;100975.03;5063423;28;20037;-72
2023/09/01 05:56:44;;;;;;;73.68;70.22;;;;;;;20.73;48.17;100976.94;5049216;28;20049;-73
2023/09/01 05:59:10;;;;;;;75.13;71.63;;;;;;;20.73;48.05;100974.19;5048251;28;20029;-72
2023/09/01 06:01:36;;;;;;;74.13;70.50;;;;;;;20.73;47.83;100971.44;5035229;28;20040;-71
2023/09/01 06:04:05;;;;;;;72.63;69.22;;;;;;;20.73;47.69;100974.19;5048616;28;20063;-70
2023/09/01 06:06:35;;;;;;;74.30;70.47;;;;;;;20.72;48.05;100975.31;5046516;28;20057;-72
2023/09/01 06:09:01;;;;;;;74.82;71.13;;;;;;;20.72;48.19;100978.06;5033917;28;20033;-70
2023/09/01 06:11:28;;;;;;;72.68;69.35;;;;;;;20.71;48.13;100976.44;5040333;28;20035;-71
2023/09/01 06:13:54;;;;;;;75.03;70.85;;;;;;;20.71;48.27;100984.69;5037086;28;20036;-71
2023/09/01 06:16:19;;;;;;;74.80;71.25;;;;;;;20.71;48.06;100978.34;5046886;28;20449;-72
2023/09/01 06:18:45;;;;;;;75.13;71.53;;;;;;;20.71;48.12;100983.84;5042271;28;20025;-75
2023/09/01 06:21:15;;;;;;;74.70;71.20;;;;;;;20.71;48.21;100994.81;5045656;28;20029;-70
2023/09/01 06:23:44;;;;;;;74.13;70.68;;;;;;;20.71;47.77;100989.34;5050254;28;20135;-70
2023/09/01 06:26:10;;;;;;;74.05;70.55;;;;;;;20.70;47.87;100985.78;5046952;28;20037;-71
2023/09/01 06:28:36;;;;;;;74.55;71.03;;;;;;;20.69;47.97;100984.16;5046275;28;20488;-71
2023/09/01 06:31:01;;;;;;;75.15;71.65;;;;;;;20.69;48.24;100984.16;5051724;28;20112;-71
2023/09/01 06:33:26;;;;;;;73.93;70.50;;;;;;;20.68;48.27;100984.47;5046779;28;20105;-71
2023/09/01 06:35:52;;;;;;;75.63;72.03;;;;;;;20.67;48.19;100989.13;5051005;28;20107;-71
2023/09/01 06:38:17;;;;;;;73.80;70.40;;;;;;;20.68;47.88;100990.75;5027179;28;20028;-74
2023/09/01 06:40:43;;;;;;;73.05;69.55;;;;;;;20.67;48.25;100989.13;5052091;28;20111;-72
2023/09/01 06:43:09;;;;;;;72.85;69.50;;;;;;;20.67;48.06;100988.34;5049967;28;20056;-72
2023/09/01 06:45:34;;;;;;;71.32;67.82;;;;;;;20.67;48.47;100982.84;5045037;28;20120;-72
2023/09/01 06:47:59;;;;;;;74.55;70.90;;;;;;;20.68;48.35;100981.72;5046191;28;20032;-72
2023/09/01 06:50:25;;;;;;;75.38;71.68;;;;;;;20.67;48.03;100988.34;5046517;28;20099;-72
2023/09/01 06:52:51;;;;;;;74.80;70.82;;;;;;;20.67;48.13;100988.34;5042152;28;20039;-72
2023/09/01 06:55:17;;;;;;;73.53;70.03;;;;;;;20.67;48.45;100985.59;5050239;28;20461;-72
2023/09/01 06:57:42;;;;;;;74.75;71.15;;;;;;;20.67;48.27;100989.13;5051140;28;20453;-72
2023/09/01 07:00:09;;;;;;;74.88;71.28;;;;;;;20.66;48.41;100990.28;5048914;28;20362;-72
2023/09/01 07:02:34;;;;;;;76.15;72.38;;;;;;;20.66;48.60;100987.53;5050479;28;20032;-72
2023/09/01 07:04:59;;;;;;;77.47;73.70;;;;;;;20.65;48.37;100980.38;5041279;28;20038;-71
2023/09/01 07:07:25;;;;;;;77.38;73.68;;;;;;;20.65;48.62;100985.88;5042268;28;20025;-71
2023/09/01 07:09:51;;;;;;;72.05;68.68;;;;;;;20.65;48.64;100980.38;5043548;28;20087;-73
2023/09/01 07:12:16;;;;;;;74.60;71.10;;;;;;;20.66;48.67;100986.69;5033374;28;20444;-71
2023/09/01 07:14:42;;;;;;;72.65;69.28;;;;;;;20.65;48.31;100987.81;5032549;28;20045;-71
2023/09/01 07:17:11;;;;;;;74.85;71.20;;;;;;;20.66;48.17;100981.19;5041157;28;20355;-72
2023/09/01 07:19:37;;;;;;;72.60;69.28;;;;;;;20.65;48.83;100979.59;5048614;28;20036;-72
2023/09/01 07:22:04;;;;;;;74.28;70.68;;;;;;;20.64;48.75;100970.53;5038789;28;20033;-71
2023/09/01 07:24:31;;;;;;;73.72;70.03;;;;;;;20.64;48.62;100970.53;5032959;28;20105;-73
2023/09/01 07:26:57;;;;;;;76.30;72.38;;;;;;;20.64;48.36;100973.28;5039153;28;20063;-71
2023/09/01 07:29:22;;;;;;;74.25;70.47;;;;;;;20.64;48.43;100976.03;5050891;28;20499;-74
2023/09/01 07:31:48;;;;;;;75.63;72.03;;;;;;;20.63;48.82;100971.63;5047862;28;20112;-72
2023/09/01 07:34:13;;;;;;;73.72;70.22;;;;;;;20.64;48.22;100972.47;5044864;28;20086;-74
2023/09/01 07:36:38;;;;;;;74.43;70.82;;;;;;;20.65;48.27;100968.59;5044374;28;20116;-73
2023/09/01 07:39:04;;;;;;;74.97;71.47;;;;;;;20.65;48.40;100969.41;5051285;28;20461;-73
2023/09/01 07:41:29;;;;;;;75.57;72.03;;;;;;;20.65;48.34;100974.09;5048580;28;20475;-75
2023/09/01 07:43:55;;;;;;;73.40;69.78;;;;;;;20.64;48.79;100980.72;5050760;28;20131;-71
2023/09/01 07:46:20;;;;;;;74.43;70.72;;;;;;;20.65;48.67;100980.38;5046228;28;20036;-72
2023/09/01 07:48:46;;;;;;;72.18;68.82;;;;;;;20.64;48.40;100981.53;5040563;28;20037;-71
2023/09/01 07:51:12;;;;;;;74.00;70.40;;;;;;;20.64;48.67;100989.75;5055420;28;20540;-72
2023/09/01 07:53:38;;;;;;;74.10;70.40;;;;;;;20.65;48.54;100990.56;5049763;28;20394;-74
2023/09/01 07:56:04;;;;;;;72.47;69.07;;;;;;;20.64;48.41;100995.25;5043510;28;20120;-73
2023/09/01 07:58:30;;;;;;;75.30;71.22;;;;;;;20.64;48.42;101002.66;5025333;28;20368;-74
2023/09/01 08:00:55;;;;;;;71.88;68.47;;;;;;;20.64;48.88;100992.50;5031179;28;20029;-75
2023/09/01 08:03:21;;;;;;;71.57;68.18;;;;;;;20.63;48.80;100985.38;5041385;28;20125;-73
2023/09/01 08:05:46;;;;;;;74.72;71.03;;;;;;;20.64;48.38;100977.97;5048676;28;20465;-73
2023/09/01 08:08:13;;;;;;;73.93;70.43;;;;;;;20.65;48.62;100982.31;5034843;28;20028;-72
2023/09/01 08:10:39;;;;;;;72.45;69.05;;;;;;;20.64;48.71;100983.47;5037757;28;20037;-74
2023/09/01 08:13:05;;;;;;;75.22;71.63;;;;;;;20.64;48.56;100988.94;5046568;28;20036;-71
2023/09/01 08:15:32;;;;;;;73.22;69.75;;;;;;;20.63;48.80;100993.59;5041688;28;20064;-72
2023/09/01 08:17:58;;;;;;;73.47;69.63;;;;;;;20.64;48.99;101002.66;5037756;28;20053;-74
2023/09/01 08:20:23;;;;;;;75.10;71.50;;;;;;;20.63;48.62;101010.06;5040439;28;20029;-73
2023/09/01 08:22:49;;;;;;;74.13;70.53;;;;;;;20.64;48.70;101011.72;5042204;28;20037;-72
2023/09/01 08:25:15;;;;;;;75.55;71.85;;;;;;;20.65;48.63;101013.31;5036526;28;20543;-72
2023/09/01 08:27:40;;;;;;;73.63;70.20;;;;;;;20.64;48.56;101010.91;5034763;28;20071;-72
2023/09/01 08:30:06;;;;;;;77.20;73.38;;;;;;;20.64;49.00;101011.72;5038817;28;20035;-73
2023/09/01 08:32:33;;;;;;;75.43;71.72;;;;;;;20.65;49.01;101023.50;5044443;28;20366;-73
2023/09/01 08:34:59;;;;;;;72.53;69.03;;;;;;;20.64;49.01;101025.44;5048701;28;20028;-73
2023/09/01 08:37:25;;;;;;;72.75;69.32;;;;;;;20.64;49.10;101017.19;5039292;28;20067;-73
2023/09/01 08:39:50;;;;;;;72.72;69.20;;;;;;;20.64;48.70;101028.19;5045840;28;20029;-72
2023/09/01 08:42:18;;;;;;;72.95;69.45;;;;;;;20.64;48.93;101019.13;5035035;28;20342;-73
2023/09/01 08:44:44;;;;;;;71.57;68.28;;;;;;;20.63;49.16;101018.31;5047838;28;20104;-72
2023/09/01 08:47:10;;;;;;;74.85;71.18;;;;;;;20.64;48.94;101016.41;5044921;28;20107;-73
2023/09/01 08:49:35;;;;;;;76.03;72.53;;;;;;;20.64;49.02;101014.47;5036636;28;20479;-73
2023/09/01 08:52:03;;;;;;;72.22;68.90;;;;;;;20.65;48.92;101026.25;5038739;28;20120;-76
2023/09/01 08:54:30;;;;;;;75.68;72.07;;;;;;;20.65;48.62;101023.50;5047107;28;20032;-72
2023/09/01 08:56:55;;;;;;;76.53;72.82;;;;;;;20.65;48.68;101029.00;5040890;28;20029;-71
2023/09/01 08:59:21;;;;;;;72.03;68.63;;;;;;;20.65;48.84;101026.25;5035556;28;20030;-73
2023/09/01 09:01:48;;;;;;;72.97;69.57;;;;;;;20.64;48.79;101030.94;5030660;28;20037;-72
2023/09/01 09:04:13;;;;;;;74.97;71.47;;;;;;;20.64;49.26;101025.44;5042603;28;20064;-72
2023/09/01 09:06:40;;;;;;;75.70;72.07;;;;;;;20.65;49.10;101037.22;5047459;28;20039;-73
2023/09/01 09:09:14;;;;;;;74.57;70.95;;;;;;;20.66;48.80;101030.59;5039799;28;20033;-73
2023/09/01 09:11:59;;;;;;;75.03;71.43;;;;;;;20.65;49.02;101031.72;5042622;28;20469;-73
2023/09/01 09:14:30;;;;;;;75.32;71.53;;;;;;;20.64;49.21;101030.13;5039576;28;20064;-71
2023/09/01 09:16:57;;;;;;;77.45;73.65;;;;;;;20.64;48.93;101036.41;5041731;28;20082;-71
2023/09/01 09:19:23;;;;;;;74.68;71.18;;;;;;;20.65;49.41;101042.72;5039177;28;20265;-71
2023/09/01 09:22:03;;;;;;;73.25;69.60;;;;;;;20.66;48.68;101045.16;5035036;28;20033;-71
2023/09/01 09:24:36;;;;;;;72.55;69.15;;;;;;;20.66;49.28;101036.94;5042097;28;20041;-71
2023/09/01 09:27:03;;;;;;;77.32;73.43;;;;;;;20.66;49.25;101038.84;5039238;28;20075;-71
2023/09/01 09:29:38;;;;;;;73.07;69.78;;;;;;;20.66;49.06;101044.31;5041655;28;20051;-71
2023/09/01 09:32:18;;;;;;;73.95;70.45;;;;;;;20.67;49.17;101051.47;5038164;28;20021;-72
2023/09/01 09:35:05;;;;;;;72.30;68.95;;;;;;;20.66;49.53;101049.81;5038881;28;20096;-72
2023/09/01 09:37:31;;;;;;;72.68;69.18;;;;;;;20.67;49.35;101049.53;5041247;28;20036;-72
2023/09/01 09:40:16;;;;;;;73.38;69.82;;;;;;;20.66;49.21;101050.66;5048124;28;20037;-72
2023/09/01 09:42:43;;;;;;;73.07;69.78;;;;;;;20.67;49.45;101057.75;5046011;28;20418;-71
2023/09/01 09:45:28;;;;;;;72.30;68.93;;;;;;;20.66;49.52;101047.06;5038149;28;20037;-72
2023/09/01 09:47:55;;;;;;;72.55;69.18;;;;;;;20.66;49.40;101056.16;5042670;28;20028;-70
2023/09/01 09:50:21;;;;;;;72.78;69.28;;;;;;;20.67;49.32;101044.03;5037753;28;20111;-71
2023/09/01 09:52:49;;;;;;;72.55;69.18;;;;;;;20.68;49.03;101048.41;5040867;28;20071;-70
2023/09/01 09:55:24;;;;;;;77.78;74.05;;;;;;;20.68;49.25;101053.06;5046261;28;20036;-71
2023/09/01 09:57:51;;;;;;;75.22;71.65;;;;;;;20.69;49.09;101058.28;5042932;28;20032;-71
2023/09/01 10:00:19;;;;;;;76.18;72.38;;;;;;;20.70;49.58;101053.59;5044420;28;20041;-71
2023/09/01 10:02:50;;;;;;;73.60;70.10;;;;;;;20.71;49.23;101049.72;5043970;28;20103;-71
2023/09/01 10:05:17;;;;;;;75.50;71.90;;;;;;;20.70;49.48;101046.16;5045006;28;20079;-72
2023/09/01 10:07:43;;;;;;;74.13;70.72;;;;;;;20.70;49.26;101051.66;5042582;28;20520;-72
2023/09/01 10:10:09;;;;;;;73.97;70.55;;;;;;;20.71;49.19;101050.56;5049519;28;20119;-75
2023/09/01 10:12:36;;;;;;;73.03;69.63;;;;;;;20.72;49.36;101054.09;5042408;28;20040;-72
2023/09/01 10:15:03;;;;;;;71.57;68.30;;;;;;;20.72;49.42;101057.66;5056977;28;20471;-73
2023/09/01 10:17:32;;;;;;;73.43;70.05;;;;;;;20.73;49.44;101048.31;5041779;28;20526;-71
2023/09/01 10:20:00;;;;;;;74.10;70.63;;;;;;;20.74;49.61;101065.59;5042340;28;20052;-72
2023/09/01 10:22:26;;;;;;;74.97;71.45;;;;;;;20.74;49.32;101063.66;5027811;28;20021;-72
2023/09/01 10:25:10;;;;;;;75.30;71.82;;;;;;;20.74;49.37;101066.41;5045850;28;20040;-72
2023/09/01 10:27:36;;;;;;;70.40;67.10;;;;;;;20.74;49.73;101066.41;5039337;28;20037;-72
2023/09/01 10:30:25;;;;;;;72.28;68.95;;;;;;;20.73;49.57;101073.00;5050284;28;20726;-71
2023/09/01 10:33:01;;;;;;;72.22;68.93;;;;;;;20.75;49.48;101076.25;5042636;28;20172;-71
2023/09/01 10:35:35;;;;;;;74.03;70.43;;;;;;;20.76;49.50;101077.06;5040259;28;20112;-71
2023/09/01 10:38:09;;;;;;;70.07;66.88;;;;;;;20.77;49.48;101080.66;5051696;28;21013;-71
2023/09/01 10:40:42;;;;;;;73.70;70.30;;;;;;;20.77;49.63;101075.97;5041056;28;20028;-71
2023/09/01 10:43:07;;;;;;;70.50;67.30;;;;;;;20.78;49.54;101071.28;5046910;28;20037;-71
2023/09/01 10:45:33;;;;;;;71.90;68.65;;;;;;;20.78;49.58;101068.53;5036303;28;20035;-73
2023/09/01 10:47:58;;;;;;;72.75;69.22;;;;;;;20.79;49.80;101061.94;5046533;28;20033;-73
2023/09/01 10:50:24;;;;;;;73.15;69.75;;;;;;;20.80;49.99;101066.31;5039549;28;20040;-73
2023/09/01 10:53:27;;;;;;;74.55;71.05;;;;;;;20.79;50.02;101062.75;5042208;28;20040;-72
2023/09/01 10:56:12;;;;;;;70.60;67.30;;;;;;;20.78;50.06;101060.31;5040511;28;20048;-73
2023/09/01 10:58:39;;;;;;;71.50;68.20;;;;;;;20.78;49.64;101061.13;5044646;28;20025;-73
2023/09/01 11:01:37;;;;;;;73.80;70.43;;;;;;;20.78;50.06;101063.06;5035765;28;20090;-72
2023/09/01 11:04:14;;;;;;;72.20;68.80;;;;;;;20.78;50.13;101066.59;5047391;28;20034;-73
2023/09/01 11:06:58;;;;;;;72.80;69.40;;;;;;;20.78;50.12;101065.81;5039104;28;20032;-74
2023/09/01 11:09:32;;;;;;;70.80;67.50;;;;;;;20.80;49.93;101071.81;5041751;28;20036;-72
2023/09/01 11:11:58;;;;;;;73.25;69.85;;;;;;;20.80;49.95;101067.13;5035313;28;20130;-72